Crane Gaia — 3FXX2 — position and weather

sailwx.info

Track history (hours):
 
Tides and Currents Weather Stations Pressure Air Temp Water Temp Dewpoint Dewpoint Depression Visibility Wind Speed Wind Dir Waves Ship Positions

Crane Gaia

Last reported at 2016-Jun-17 21:33 UTC. Time now 2016-Jun-25 07:03 UTC.
Position N 37°01' E 123°45'.

Length 115 m; draft 5.2 m.

Type: Tanker. MMSI: 352461000.

Date/timePositionNaut miles runAvg speedWind from/ knotsBaromVisibWave heightAir tempDewpointWater temp
2016-Jun-17 21:33N 37°01' E 123°45'1312.9
2016-Jun-17 20:32N 37°12' E 123°36'1312.8
2016-Jun-17 19:31N 37°22' E 123°27'1312.8
2016-Jun-17 18:29N 37°33' E 123°17'1313.6
2016-Jun-17 17:33N 37°44' E 123°09'1313.4
2016-Jun-17 16:33N 37°53' E 122°56'1715.4
2016-Jun-17 15:28N 37°54' E 122°35'1415.2
2016-Jun-17 14:33N 37°54' E 122°18'1615.0
2016-Jun-17 13:30N 37°54' E 121°58'2914.1
2016-Jun-17 11:27N 37°50' E 121°21'1213.4
2016-Jun-17 10:33N 37°44' E 121°08'4 0.1
2016-Jun-16 03:21N 37°43' E 121°04'5 5.6
2016-Jun-16 02:30N 37°45' E 121°09'5 5.8
2016-Jun-16 01:33N 37°51' E 121°09'0 0.1
2016-Jun-16 00:27N 37°51' E 121°09'0 0.0
2016-Jun-15 23:24N 37°51' E 121°09'0 0.0
2016-Jun-15 22:33N 37°51' E 121°09'0 0.0
2016-Jun-15 21:30N 37°51' E 121°09'0 0.0
2016-Jun-15 20:33N 37°51' E 121°09'0 0.0
2016-Jun-15 19:30N 37°51' E 121°09'0 0.0
2016-Jun-15 18:27N 37°51' E 121°09'0 0.0
2016-Jun-15 17:33N 37°51' E 121°09'0 0.0
2016-Jun-15 16:27N 37°51' E 121°09'0 0.0
2016-Jun-15 15:33N 37°51' E 121°09'0 0.0
2016-Jun-15 14:27N 37°51' E 121°09'0 0.0
2016-Jun-15 13:33N 37°51' E 121°09'0 0.0
2016-Jun-15 12:33N 37°51' E 121°09'5 4.9
2016-Jun-15 11:34N 37°55' E 121°11'6 5.0
2016-Jun-15 10:18N 38°00' E 121°16'0 0.0
2016-Jun-15 08:30N 38°00' E 121°16'0 0.0
2016-Jun-14 23:21N 38°00' E 121°16'0 0.0
2016-Jun-14 21:33N 38°00' E 121°16'0 0.0
2016-Jun-14 18:27N 38°00' E 121°16'  
2016-Jun-09 16:26N 34°46' E 139°56'1313.9
2016-Jun-09 15:30N 34°52' E 140°10'1413.9
2016-Jun-09 14:29N 35°00' E 140°24'1413.9
2016-Jun-09 13:30N 35°08' E 140°37'1313.8
2016-Jun-09 12:32N 35°19' E 140°46'1413.6
2016-Jun-09 11:31N 35°31' E 140°55'  
Track history (hours):
 
Tides and Currents Weather Stations Pressure Air Temp Water Temp Dewpoint Dewpoint Depression Visibility Wind Speed Wind Dir Waves Ship Positions

Crane Gaia

Last reported at 2016-Jun-17 21:33 UTC. Time now 2016-Jun-25 07:03 UTC.
Position N 37°01' E 123°45'.

Length 115 m; draft 5.2 m.

Type: Tanker. MMSI: 352461000.

Date/timePositionNaut miles runAvg speedWind from/ knotsBaromVisibWave heightAir tempDewpointWater temp
2016-Jun-17 21:33N 37°01' E 123°45'1312.9
2016-Jun-17 20:32N 37°12' E 123°36'1312.8
2016-Jun-17 19:31N 37°22' E 123°27'1312.8
2016-Jun-17 18:29N 37°33' E 123°17'1313.6
2016-Jun-17 17:33N 37°44' E 123°09'1313.4
2016-Jun-17 16:33N 37°53' E 122°56'1715.4
2016-Jun-17 15:28N 37°54' E 122°35'1415.2
2016-Jun-17 14:33N 37°54' E 122°18'1615.0
2016-Jun-17 13:30N 37°54' E 121°58'2914.1
2016-Jun-17 11:27N 37°50' E 121°21'1213.4
2016-Jun-17 10:33N 37°44' E 121°08'4 0.1
2016-Jun-16 03:21N 37°43' E 121°04'5 5.6
2016-Jun-16 02:30N 37°45' E 121°09'5 5.8
2016-Jun-16 01:33N 37°51' E 121°09'0 0.1
2016-Jun-16 00:27N 37°51' E 121°09'0 0.0
2016-Jun-15 23:24N 37°51' E 121°09'0 0.0
2016-Jun-15 22:33N 37°51' E 121°09'0 0.0
2016-Jun-15 21:30N 37°51' E 121°09'0 0.0
2016-Jun-15 20:33N 37°51' E 121°09'0 0.0
2016-Jun-15 19:30N 37°51' E 121°09'0 0.0
2016-Jun-15 18:27N 37°51' E 121°09'0 0.0
2016-Jun-15 17:33N 37°51' E 121°09'0 0.0
2016-Jun-15 16:27N 37°51' E 121°09'0 0.0
2016-Jun-15 15:33N 37°51' E 121°09'0 0.0
2016-Jun-15 14:27N 37°51' E 121°09'0 0.0
2016-Jun-15 13:33N 37°51' E 121°09'0 0.0
2016-Jun-15 12:33N 37°51' E 121°09'5 4.9
2016-Jun-15 11:34N 37°55' E 121°11'6 5.0
2016-Jun-15 10:18N 38°00' E 121°16'0 0.0
2016-Jun-15 08:30N 38°00' E 121°16'0 0.0
2016-Jun-14 23:21N 38°00' E 121°16'0 0.0
2016-Jun-14 21:33N 38°00' E 121°16'0 0.0
2016-Jun-14 18:27N 38°00' E 121°16'  
2016-Jun-09 16:26N 34°46' E 139°56'1313.9
2016-Jun-09 15:30N 34°52' E 140°10'1413.9
2016-Jun-09 14:29N 35°00' E 140°24'1413.9
2016-Jun-09 13:30N 35°08' E 140°37'1313.8
2016-Jun-09 12:32N 35°19' E 140°46'1413.6
2016-Jun-09 11:31N 35°31' E 140°55'  

Dump ship's entire track history